createdAt,value
2017-05-28T00:00:16.438Z,-53
2017-05-28T00:10:16.426Z,-55
2017-05-28T00:20:16.468Z,-55
2017-05-28T00:30:16.459Z,-53
2017-05-28T00:40:16.462Z,-53
2017-05-28T00:50:16.419Z,-53
2017-05-28T01:00:16.433Z,-55
2017-05-28T01:10:16.423Z,-54
2017-05-28T01:20:16.435Z,-53
2017-05-28T01:30:16.415Z,-53
2017-05-28T01:40:16.422Z,-54
2017-05-28T01:50:16.434Z,-55
2017-05-28T02:00:16.413Z,-54
2017-05-28T02:10:16.435Z,-52
2017-05-28T02:20:16.442Z,-55
2017-05-28T02:30:16.419Z,-54
2017-05-28T02:40:16.409Z,-53
2017-05-28T02:50:16.409Z,-54
2017-05-28T03:00:16.445Z,-53
2017-05-28T03:10:16.445Z,-54
2017-05-28T03:20:16.426Z,-55
2017-05-28T03:30:16.426Z,-55
2017-05-28T03:40:16.445Z,-55
2017-05-28T03:50:16.420Z,-56
2017-05-28T04:00:16.458Z,-56
2017-05-28T04:10:16.452Z,-55
2017-05-28T04:20:16.426Z,-53
2017-05-28T04:30:16.416Z,-54
2017-05-28T04:40:16.432Z,-54
2017-05-28T04:50:16.425Z,-53
2017-05-28T05:00:16.440Z,-53
2017-05-28T05:10:16.431Z,-54
2017-05-28T05:20:16.434Z,-54
2017-05-28T05:30:16.432Z,-54
2017-05-28T05:40:16.425Z,-52
2017-05-28T05:50:16.423Z,-52
2017-05-28T06:00:16.431Z,-54
2017-05-28T06:10:16.444Z,-54
2017-05-28T06:20:16.443Z,-53
2017-05-28T06:30:16.437Z,-53
2017-05-28T06:40:16.442Z,-53
2017-05-28T06:50:16.434Z,-54
2017-05-28T07:00:16.445Z,-54
2017-05-28T07:10:16.460Z,-54
2017-05-28T07:20:16.454Z,-53
2017-05-28T07:30:16.440Z,-53
2017-05-28T07:40:16.454Z,-55
2017-05-28T07:50:16.441Z,-55
2017-05-28T08:00:16.508Z,-54
2017-05-28T08:10:16.503Z,-51
2017-05-28T08:20:18.306Z,-55
2017-05-28T08:30:16.569Z,-54
2017-05-28T08:40:16.503Z,-56
2017-05-28T08:50:16.482Z,-55
2017-05-28T09:00:16.549Z,-56
2017-05-28T09:10:16.539Z,-55
2017-05-28T09:20:16.588Z,-56
2017-05-28T09:30:16.583Z,-55
2017-05-28T09:40:16.566Z,-56
2017-05-28T09:50:16.566Z,-56
2017-05-28T10:00:16.541Z,-56
2017-05-28T10:10:16.644Z,-55
2017-05-28T10:20:16.531Z,-55
2017-05-28T10:30:16.621Z,-56
2017-05-28T10:40:16.689Z,-55
2017-05-28T10:50:16.543Z,-55
2017-05-28T11:00:16.683Z,-55
2017-05-28T11:10:16.577Z,-56
2017-05-28T11:20:16.546Z,-56
2017-05-28T11:30:16.578Z,-56
2017-05-28T11:40:16.612Z,-56
2017-05-28T11:50:16.597Z,-54
2017-05-28T12:00:47.315Z,-56
2017-05-28T12:10:16.687Z,-57
2017-05-28T12:20:21.087Z,-56
2017-05-28T12:30:21.061Z,-54
2017-05-28T12:40:16.991Z,-54
2017-05-28T12:50:16.619Z,-55
2017-05-28T13:00:16.648Z,-56
2017-05-28T13:10:16.590Z,-55
2017-05-28T13:20:16.603Z,-54
2017-05-28T13:30:16.648Z,-56
2017-05-28T13:40:16.596Z,-55
2017-05-28T13:50:16.643Z,-54
2017-05-28T14:00:16.617Z,-55
2017-05-28T14:10:16.598Z,-55
2017-05-28T14:20:16.638Z,-56
2017-05-28T14:30:16.624Z,-58
2017-05-28T14:40:16.806Z,-61
2017-05-28T14:50:16.693Z,-58
2017-05-28T15:00:16.573Z,-55
2017-05-28T15:10:16.646Z,-54
2017-05-28T15:20:16.607Z,-53
2017-05-28T15:30:16.692Z,-65
2017-05-28T15:40:16.570Z,-61
2017-05-28T15:50:16.615Z,-66
2017-05-28T16:00:16.636Z,-64
2017-05-28T16:10:16.620Z,-57
2017-05-28T16:20:16.708Z,-62
2017-05-28T16:30:16.781Z,-62
2017-05-28T16:40:16.619Z,-62
2017-05-28T16:50:16.660Z,-57
2017-05-28T17:00:16.661Z,-64
2017-05-28T17:10:16.674Z,-59
2017-05-28T17:20:16.625Z,-57
2017-05-28T17:30:16.680Z,-58
2017-05-28T17:40:16.628Z,-58
2017-05-28T17:50:16.747Z,-57
2017-05-28T18:00:16.684Z,-61
2017-05-28T18:10:16.646Z,-56
2017-05-28T18:20:16.650Z,-57
2017-05-28T18:30:16.628Z,-57
2017-05-28T18:40:16.703Z,-57
2017-05-28T18:50:16.674Z,-58
2017-05-28T19:00:16.636Z,-57
2017-05-28T19:10:16.763Z,-56
2017-05-28T19:20:16.696Z,-57
2017-05-28T19:30:16.756Z,-62
2017-05-28T19:40:16.749Z,-61
2017-05-28T19:50:16.748Z,-61
2017-05-28T20:00:16.750Z,-61
2017-05-28T20:10:17.163Z,-57
2017-05-28T20:20:21.679Z,-56
2017-05-28T20:30:16.988Z,-56
2017-05-28T20:40:17.287Z,-57
2017-05-28T20:50:16.810Z,-55
2017-05-28T21:00:17.016Z,-57
2017-05-28T21:10:17.006Z,-56
2017-05-28T21:20:16.778Z,-56
2017-05-28T21:30:17.054Z,-55
2017-05-28T21:40:16.743Z,-57
2017-05-28T21:50:16.722Z,-57
2017-05-28T22:00:16.671Z,-55
2017-05-28T22:10:16.733Z,-57
2017-05-28T22:20:16.647Z,-57
2017-05-28T22:30:16.717Z,-55
2017-05-28T22:40:18.773Z,-56
2017-05-28T22:50:16.629Z,-55
2017-05-28T23:00:16.710Z,-56
2017-05-28T23:10:18.729Z,-55
2017-05-28T23:20:16.711Z,-56
2017-05-28T23:30:18.759Z,-55
2017-05-28T23:40:19.726Z,-56
2017-05-28T23:50:17.759Z,-57
